KMYV/MYV METAR and TAF weather

Enter ICAO airport designator
Station Type Date Time Source
KMYV METAR 2024/02/26 17:53 UTC NOAA

KMYV 261753Z AUTO 15011KT 10SM CLR 14/09 A3003 RMK AO2 SLP171 T01440089 10144 20100 53002


Station Type Date Time Source
KMYV Decoded METAR 2024/02/26 17:53 UTC NOAA

MARYSVILLE YUBA COUNTY, CA, United States (KMYV) 39-06N 121-34W 21M
Feb 26, 2024 - 12:53 PM EST / 2024.02.26 1753 UTC
Wind: from the SSE (150 degrees) at 13 MPH (11 KT):0
Visibility: 10 mile(s):0
Sky conditions: clear
Temperature: 57.9 F (14.4 C)
Dew Point: 48.0 F (8.9 C)
Relative Humidity: 69%
Pressure (altimeter): 30.03 in. Hg (1016 hPa)
Pressure tendency: 0.01 inches (0.2 hPa) higher than three hours ago
ob: KMYV 261753Z AUTO 15011KT 10SM CLR 14/09 A3003 RMK AO2 SLP171 T01440089 10144 20100 53002
cycle: 18

Station Type Date Time Source
KMYV TAF UTC NOAA

Error!

Example: see airport list